Time;durP1;ratioP1;P1;durP2;ratioP2;P2;SDS_P1;SDS_P2;PMS_P1;PMS_P2;Temp;Humidity;BMP_temperature;BMP_pressure;BME280_temperature;BME280_humidity;BME280_pressure;Samples;Min_cycle;Max_cycle;Signal;HPM_P1;HPM_P2
2023/11/17 01:34:58;;;;;;;2.37;2.17;;;;;;;-144.99;100.00;67352.69;5056226;28;20636;-84
2023/11/17 01:37:25;;;;;;;2.67;2.47;;;;;;;-144.99;100.00;67352.69;5044023;28;20756;-85
2023/11/17 01:39:50;;;;;;;0.83;0.83;;;;;;;-144.99;100.00;67352.69;5044394;28;20198;-85
2023/11/17 01:42:15;;;;;;;2.17;1.97;;;;;;;-144.99;100.00;67352.69;5044003;28;20202;-85
2023/11/17 01:44:41;;;;;;;1.07;0.97;;;;;;;-144.99;100.00;67352.69;5048397;28;20183;-85
2023/11/17 01:47:07;;;;;;;2.47;1.87;;;;;;;-144.99;100.00;67352.69;5045516;28;20231;-86
2023/11/17 01:49:32;;;;;;;3.73;0.93;;;;;;;-144.99;100.00;67352.69;5049816;28;20191;-86
2023/11/17 01:51:58;;;;;;;1.43;1.03;;;;;;;-144.99;100.00;67352.69;5055261;28;20210;-86
2023/11/17 01:54:24;;;;;;;1.27;1.17;;;;;;;-144.99;100.00;67352.69;5065900;28;20552;-87
2023/11/17 01:56:52;;;;;;;1.80;1.70;;;;;;;-144.99;100.00;67352.69;5064356;28;20267;-90
2023/11/17 01:59:18;;;;;;;1.23;1.23;;;;;;;-144.99;100.00;67352.69;5066174;28;20199;-88
2023/11/17 02:01:43;;;;;;;1.40;1.30;;;;;;;-144.99;100.00;67352.69;5058308;28;20203;-87
2023/11/17 02:04:09;;;;;;;1.77;1.67;;;;;;;-144.99;100.00;67352.69;5048472;28;20191;-88
2023/11/17 02:06:57;;;;;;;1.00;0.90;;;;;;;-144.99;100.00;67352.69;5052105;23;20226;-87
2023/11/17 02:09:29;;;;;;;2.40;1.60;;;;;;;-144.99;100.00;67352.69;5050470;28;20184;-85
2023/11/17 02:12:10;;;;;;;1.37;1.23;;;;;;;-144.99;100.00;67352.69;5032137;28;20175;-86
2023/11/17 02:14:39;;;;;;;2.83;1.40;;;;;;;-144.99;100.00;67352.69;5053002;28;20249;-86
2023/11/17 02:17:07;;;;;;;2.00;1.57;;;;;;;-144.99;100.00;67352.69;5049077;28;20258;-87
2023/11/17 02:19:38;;;;;;;0.97;0.97;;;;;;;-144.99;100.00;67352.69;5044734;28;20195;-87
2023/11/17 02:22:11;;;;;;;1.33;1.27;;;;;;;-144.99;100.00;67352.69;5031340;28;20195;-86
2023/11/17 02:24:44;;;;;;;6.80;1.20;;;;;;;-144.99;100.00;67352.69;5045089;28;20207;-87
2023/11/17 02:27:28;;;;;;;2.07;1.93;;;;;;;-144.99;100.00;67352.69;5051327;28;20230;-86
2023/11/17 02:30:03;;;;;;;2.67;2.47;;;;;;;-144.99;100.00;67352.69;5051795;28;20266;-86
2023/11/17 02:32:29;;;;;;;1.27;1.17;;;;;;;-144.99;100.00;67352.69;5031366;28;20194;-86
2023/11/17 02:34:55;;;;;;;2.03;1.93;;;;;;;-144.99;100.00;67352.69;5028557;28;20191;-86
2023/11/17 02:37:24;;;;;;;2.37;1.77;;;;;;;-144.99;100.00;67352.69;5051524;28;20577;-86
2023/11/17 02:39:54;;;;;;;21.30;0.93;;;;;;;-144.99;100.00;67352.69;5037418;28;20669;-86
2023/11/17 02:42:24;;;;;;;1.33;1.33;;;;;;;-144.99;100.00;67352.69;5037489;28;20697;-86
2023/11/17 02:44:50;;;;;;;2.60;1.20;;;;;;;-144.99;100.00;67352.69;5037467;28;20538;-86
2023/11/17 02:47:27;;;;;;;1.37;1.23;;;;;;;-144.99;100.00;67352.69;5028940;28;20236;-86
2023/11/17 02:49:58;;;;;;;0.67;0.67;;;;;;;-144.99;100.00;67352.69;5027520;28;20193;-85
2023/11/17 02:52:27;;;;;;;2.33;2.13;;;;;;;-144.99;100.00;67352.69;5032708;28;20185;-85
2023/11/17 02:54:54;;;;;;;7.50;1.93;;;;;;;-144.99;100.00;67352.69;5037045;28;20191;-87
2023/11/17 02:57:24;;;;;;;4.07;1.93;;;;;;;-144.99;100.00;67352.69;5050228;28;20294;-86
2023/11/17 02:59:50;;;;;;;1.93;1.73;;;;;;;-144.99;100.00;67352.69;5045890;28;20250;-86
2023/11/17 03:02:19;;;;;;;4.90;2.40;;;;;;;-144.99;100.00;67352.69;5049813;28;20744;-86
2023/11/17 03:04:45;;;;;;;0.60;0.60;;;;;;;-144.99;100.00;67352.69;5053749;28;20183;-86
2023/11/17 03:07:10;;;;;;;1.57;1.47;;;;;;;-144.99;100.00;67352.69;5054871;28;20221;-86
2023/11/17 03:09:36;;;;;;;2.13;2.00;;;;;;;-144.99;100.00;67352.69;5037357;28;20253;-86
2023/11/17 03:12:02;;;;;;;1.20;1.10;;;;;;;-144.99;100.00;67352.69;5037069;28;20559;-87
2023/11/17 03:14:28;;;;;;;0.67;0.67;;;;;;;-144.99;100.00;67352.69;5037180;28;20229;-87
2023/11/17 03:16:54;;;;;;;2.13;1.77;;;;;;;-144.99;100.00;67352.69;5053277;28;20689;-86
2023/11/17 03:19:19;;;;;;;1.20;1.10;;;;;;;-144.99;100.00;67352.69;5052662;28;20179;-86
2023/11/17 03:21:45;;;;;;;1.83;1.73;;;;;;;-144.99;100.00;67352.69;5050682;28;20207;-86
2023/11/17 03:24:23;;;;;;;1.80;1.23;;;;;;;-144.99;100.00;67352.69;5036840;28;20289;-86
2023/11/17 03:26:52;;;;;;;1.97;1.83;;;;;;;-144.99;100.00;67352.69;5054655;28;20195;-86
2023/11/17 03:29:19;;;;;;;1.30;1.20;;;;;;;-144.99;100.00;67352.69;5036835;28;20187;-86
2023/11/17 03:31:49;;;;;;;4.43;2.60;;;;;;;-144.99;100.00;67352.69;5036561;28;20240;-87
2023/11/17 03:34:16;;;;;;;1.07;1.03;;;;;;;-144.99;100.00;67352.69;5052986;28;20187;-86
2023/11/17 03:36:41;;;;;;;0.70;0.70;;;;;;;-144.99;100.00;67352.69;5053873;28;20210;-87
2023/11/17 03:39:12;;;;;;;1.03;0.97;;;;;;;-144.99;100.00;67352.69;5036308;28;20195;-87
2023/11/17 03:41:39;;;;;;;2.63;1.43;;;;;;;-144.99;100.00;67352.69;5054150;28;20223;-87
2023/11/17 03:44:06;;;;;;;1.33;1.23;;;;;;;-144.99;100.00;67352.69;5052312;28;20187;-86
2023/11/17 03:46:31;;;;;;;2.53;1.70;;;;;;;-144.99;100.00;67352.69;5053535;28;20246;-87
2023/11/17 03:48:57;;;;;;;0.73;0.73;;;;;;;-144.99;100.00;67352.69;5053742;28;20187;-87
2023/11/17 03:51:22;;;;;;;2.20;1.67;;;;;;;-144.99;100.00;67352.69;5035800;28;20183;-87
2023/11/17 03:53:48;;;;;;;2.70;2.33;;;;;;;-144.99;100.00;67352.69;5052553;28;20720;-87
2023/11/17 03:56:13;;;;;;;2.37;2.17;;;;;;;-144.99;100.00;67352.69;5045149;28;20203;-86
2023/11/17 03:58:38;;;;;;;1.73;1.47;;;;;;;-144.99;100.00;67352.69;5029411;28;20188;-86
2023/11/17 04:01:04;;;;;;;2.40;2.20;;;;;;;-144.99;100.00;67352.69;5034055;28;20186;-87
2023/11/17 04:03:29;;;;;;;1.80;1.70;;;;;;;-144.99;100.00;67352.69;5035906;28;20596;-87
2023/11/17 04:05:56;;;;;;;1.63;1.53;;;;;;;-144.99;100.00;67352.69;5035635;28;20203;-86
2023/11/17 04:08:22;;;;;;;2.33;2.03;;;;;;;-144.99;100.00;67352.69;5053513;28;20266;-87
2023/11/17 04:10:47;;;;;;;1.03;1.03;;;;;;;-144.99;100.00;67352.69;5052458;28;20233;-86
2023/11/17 04:13:14;;;;;;;4.00;3.63;;;;;;;-144.99;100.00;67352.69;5035477;28;20782;-87
2023/11/17 04:15:39;;;;;;;3.07;2.07;;;;;;;-144.99;100.00;67352.69;5035283;28;20273;-86
2023/11/17 04:18:04;;;;;;;2.20;1.90;;;;;;;-144.99;100.00;67352.69;5017012;28;20286;-87
2023/11/17 04:20:30;;;;;;;4.00;2.97;;;;;;;-144.99;100.00;67352.69;5015715;28;20238;-86
2023/11/17 04:22:55;;;;;;;2.70;2.50;;;;;;;-144.99;100.00;67352.69;5033332;28;20208;-86
2023/11/17 04:25:21;;;;;;;2.40;2.00;;;;;;;-144.99;100.00;67352.69;5015519;28;20708;-86
2023/11/17 04:27:47;;;;;;;2.33;2.13;;;;;;;-144.99;100.00;67352.69;5015287;28;20226;-87
2023/11/17 04:30:12;;;;;;;2.43;2.23;;;;;;;-144.99;100.00;67352.69;5033230;28;20192;-86
2023/11/17 04:32:38;;;;;;;4.47;4.07;;;;;;;-144.99;100.00;67352.69;5033073;28;20547;-87
2023/11/17 04:35:03;;;;;;;5.00;3.23;;;;;;;-144.99;100.00;67352.69;5033097;28;20617;-86
2023/11/17 04:37:29;;;;;;;2.93;2.73;;;;;;;-144.99;100.00;67352.69;5031716;28;20215;-87
2023/11/17 04:39:55;;;;;;;3.47;3.17;;;;;;;-144.99;100.00;67352.69;5032823;28;20188;-86
2023/11/17 04:42:20;;;;;;;3.47;2.57;;;;;;;-144.99;100.00;67352.69;5032616;28;20203;-87
2023/11/17 04:44:47;;;;;;;1.43;1.33;;;;;;;-144.99;100.00;67352.69;5032725;28;20175;-87
2023/11/17 04:47:12;;;;;;;3.03;2.70;;;;;;;-144.99;100.00;67352.69;5032719;28;20735;-87
2023/11/17 04:49:38;;;;;;;4.37;3.33;;;;;;;-144.99;100.00;67352.69;5015301;28;20187;-87
2023/11/17 04:52:03;;;;;;;4.47;4.07;;;;;;;-144.99;100.00;67352.69;5015120;28;20219;-87
2023/11/17 04:54:29;;;;;;;4.10;3.80;;;;;;;-144.99;100.00;67352.69;5032604;28;20187;-86
2023/11/17 04:56:55;;;;;;;4.83;3.37;;;;;;;-144.99;100.00;67352.69;5014567;28;20287;-87
2023/11/17 04:59:21;;;;;;;4.30;3.67;;;;;;;-144.99;100.00;67352.69;5015538;28;20191;-86
2023/11/17 05:01:46;;;;;;;4.80;4.50;;;;;;;-144.99;100.00;67352.69;5018010;28;20204;-87
2023/11/17 05:04:13;;;;;;;9.40;4.27;;;;;;;-144.99;100.00;67352.69;5031474;28;20249;-87
2023/11/17 05:06:38;;;;;;;2.73;2.47;;;;;;;-144.99;100.00;67352.69;5014573;28;20732;-86
2023/11/17 05:09:11;;;;;;;11.77;4.70;;;;;;;-144.99;100.00;67352.69;5031075;28;20192;-87
2023/11/17 05:11:37;;;;;;;5.17;4.67;;;;;;;-144.99;100.00;67352.69;5014566;28;20238;-87
2023/11/17 05:14:04;;;;;;;4.90;3.97;;;;;;;-144.99;100.00;67352.69;5031345;28;20195;-86
2023/11/17 05:16:31;;;;;;;4.60;4.27;;;;;;;-144.99;100.00;67352.69;5031769;28;20200;-87
2023/11/17 05:18:56;;;;;;;3.93;3.63;;;;;;;-144.99;100.00;67352.69;5014652;28;20252;-86
2023/11/17 05:21:22;;;;;;;3.77;3.43;;;;;;;-144.99;100.00;67352.69;5031275;28;20677;-87
2023/11/17 05:23:48;;;;;;;5.50;4.73;;;;;;;-144.99;100.00;67352.69;5022633;28;20727;-87
2023/11/17 05:26:13;;;;;;;9.27;4.07;;;;;;;-144.99;100.00;67352.69;5014223;28;20204;-87
2023/11/17 05:28:39;;;;;;;3.60;3.33;;;;;;;-144.99;100.00;67352.69;5031256;28;20184;-86
2023/11/17 05:31:04;;;;;;;4.33;3.93;;;;;;;-144.99;100.00;67352.69;5014608;28;20668;-86
2023/11/17 05:33:30;;;;;;;10.13;1.60;;;;;;;-144.99;100.00;67352.69;5030884;28;20188;-87
2023/11/17 05:35:56;;;;;;;4.30;3.97;;;;;;;-144.99;100.00;67352.69;5031780;28;20187;-85
2023/11/17 05:38:26;;;;;;;4.17;3.77;;;;;;;-144.99;100.00;67352.69;5030849;28;20195;-87
2023/11/17 05:40:51;;;;;;;3.43;3.13;;;;;;;-144.99;100.00;67352.69;5030780;28;20271;-87
2023/11/17 05:43:17;;;;;;;4.70;4.40;;;;;;;-144.99;100.00;67352.69;5014401;28;20223;-86
2023/11/17 05:45:42;;;;;;;4.47;4.17;;;;;;;-144.99;100.00;67352.69;5014066;28;20237;-87
2023/11/17 05:48:10;;;;;;;5.03;4.33;;;;;;;-144.99;100.00;67352.69;5032004;28;20195;-86
2023/11/17 05:50:36;;;;;;;3.90;3.60;;;;;;;-144.99;100.00;67352.69;5014468;28;20677;-86
2023/11/17 05:53:01;;;;;;;4.80;4.37;;;;;;;-144.99;100.00;67352.69;5030660;28;20188;-86
2023/11/17 05:55:27;;;;;;;6.83;5.23;;;;;;;-144.99;100.00;67352.69;5014095;28;20206;-87
2023/11/17 05:57:52;;;;;;;5.43;4.93;;;;;;;-144.99;100.00;67352.69;5014227;28;20234;-86
2023/11/17 06:00:20;;;;;;;5.47;4.97;;;;;;;-144.99;100.00;67352.69;5031976;28;20188;-87
2023/11/17 06:02:46;;;;;;;6.37;5.87;;;;;;;-144.99;100.00;67352.69;5031848;28;20617;-86
2023/11/17 06:05:13;;;;;;;4.23;3.87;;;;;;;-144.99;100.00;67352.69;5014228;28;20252;-87
2023/11/17 06:07:39;;;;;;;3.90;3.57;;;;;;;-144.99;100.00;67352.69;5014240;28;20334;-87
2023/11/17 06:10:05;;;;;;;4.00;3.67;;;;;;;-144.99;100.00;67352.69;5014346;28;20215;-87
2023/11/17 06:12:33;;;;;;;9.83;5.70;;;;;;;-144.99;100.00;67352.69;5014239;28;20187;-87
2023/11/17 06:15:00;;;;;;;6.37;5.77;;;;;;;-144.99;100.00;67352.69;5017764;28;20188;-87
2023/11/17 06:17:26;;;;;;;7.93;7.23;;;;;;;-144.99;100.00;67352.69;5018273;28;20226;-86
2023/11/17 06:19:51;;;;;;;8.60;7.80;;;;;;;-144.99;100.00;67352.69;5034409;28;20187;-86
2023/11/17 06:22:17;;;;;;;5.27;4.77;;;;;;;-144.99;100.00;67352.69;5035464;28;20302;-86
2023/11/17 06:24:42;;;;;;;5.87;5.17;;;;;;;-144.99;100.00;67352.69;5017516;28;20191;-87
2023/11/17 06:27:10;;;;;;;11.53;7.17;;;;;;;-144.99;100.00;67352.69;5033853;28;20253;-87
2023/11/17 06:29:36;;;;;;;8.40;7.60;;;;;;;-144.99;100.00;67352.69;5017831;28;20266;-87
2023/11/17 06:32:02;;;;;;;3.70;3.40;;;;;;;-144.99;100.00;67352.69;5017507;28;20210;-87
2023/11/17 06:34:27;;;;;;;5.70;5.27;;;;;;;-144.99;100.00;67352.69;5017570;28;20191;-87
2023/11/17 06:36:53;;;;;;;5.83;5.37;;;;;;;-144.99;100.00;67352.69;5017246;28;20645;-86
2023/11/17 06:39:18;;;;;;;6.77;5.97;;;;;;;-144.99;100.00;67352.69;5017682;28;20274;-88
2023/11/17 06:41:43;;;;;;;5.17;4.77;;;;;;;-144.99;100.00;67352.69;5017565;28;20223;-87
2023/11/17 06:44:12;;;;;;;5.10;4.70;;;;;;;-144.99;100.00;67352.69;5033797;28;20187;-87
2023/11/17 06:46:47;;;;;;;4.23;3.93;;;;;;;-144.99;100.00;67352.69;5035035;28;20721;-87
2023/11/17 06:49:14;;;;;;;6.40;5.90;;;;;;;-144.99;100.00;67352.69;5034871;28;20202;-88
2023/11/17 06:51:40;;;;;;;5.93;5.43;;;;;;;-144.99;100.00;67352.69;5017236;28;20242;-87
2023/11/17 06:54:10;;;;;;;5.53;5.03;;;;;;;-144.99;100.00;67352.69;5017248;28;20188;-87
2023/11/17 06:56:40;;;;;;;3.60;3.30;;;;;;;-144.99;100.00;67352.69;5017014;28;20261;-87
2023/11/17 06:59:06;;;;;;;4.83;4.33;;;;;;;-144.99;100.00;67352.69;5033605;28;20207;-87
2023/11/17 07:01:35;;;;;;;4.00;3.13;;;;;;;-144.99;100.00;67352.69;5017023;28;20283;-87
2023/11/17 07:04:02;;;;;;;14.40;6.63;;;;;;;-144.99;100.00;67352.69;5017305;28;20188;-87
2023/11/17 07:06:28;;;;;;;6.20;5.70;;;;;;;-144.99;100.00;67352.69;5034336;28;20306;-88
2023/11/17 07:08:53;;;;;;;5.13;4.73;;;;;;;-144.99;100.00;67352.69;5015839;28;20338;-87
2023/11/17 07:11:19;;;;;;;6.93;5.17;;;;;;;-144.99;100.00;67352.69;5015747;28;20183;-87
2023/11/17 07:13:45;;;;;;;6.63;5.53;;;;;;;-144.99;100.00;67352.69;5016257;28;20247;-87
2023/11/17 07:16:12;;;;;;;8.80;3.97;;;;;;;-144.99;100.00;67352.69;5032057;28;20195;-87
2023/11/17 07:18:38;;;;;;;2.90;2.70;;;;;;;-144.99;100.00;67352.69;5015623;28;20266;-87
2023/11/17 07:21:04;;;;;;;5.27;4.77;;;;;;;-144.99;100.00;67352.69;5015362;28;20245;-87
2023/11/17 07:23:29;;;;;;;5.87;4.73;;;;;;;-144.99;100.00;67352.69;5015501;28;20192;-87
2023/11/17 07:25:55;;;;;;;4.87;4.47;;;;;;;-144.99;100.00;67352.69;5033717;28;20194;-87
2023/11/17 07:28:21;;;;;;;3.23;3.03;;;;;;;-144.99;100.00;67352.69;5015274;28;20218;-87
2023/11/17 07:30:47;;;;;;;3.57;3.27;;;;;;;-144.99;100.00;67352.69;5037587;28;20172;-87
2023/11/17 07:33:16;;;;;;;4.33;3.67;;;;;;;-144.99;100.00;67352.69;5031727;28;20191;-87
2023/11/17 07:35:42;;;;;;;8.63;4.53;;;;;;;-144.99;100.00;67352.69;5031785;28;20179;-88
2023/11/17 07:38:08;;;;;;;4.43;4.10;;;;;;;-144.99;100.00;67352.69;5033385;28;20245;-88
2023/11/17 07:40:34;;;;;;;6.23;3.87;;;;;;;-144.99;100.00;67352.69;5033475;28;20665;-87
2023/11/17 07:42:59;;;;;;;4.13;3.77;;;;;;;-144.99;100.00;67352.69;5015068;28;20736;-87
2023/11/17 07:45:24;;;;;;;3.63;2.83;;;;;;;-144.99;100.00;67352.69;5016139;28;20203;-87
2023/11/17 07:47:50;;;;;;;2.73;2.50;;;;;;;-144.99;100.00;67352.69;5031562;28;20204;-87
2023/11/17 07:50:15;;;;;;;2.80;2.60;;;;;;;-144.99;100.00;67352.69;5033060;28;20765;-87
2023/11/17 07:52:45;;;;;;;3.33;2.77;;;;;;;-144.99;100.00;67352.69;5015572;28;20183;-87
2023/11/17 07:55:17;;;;;;;4.30;3.93;;;;;;;-144.99;100.00;67352.69;5033160;28;20187;-87
2023/11/17 07:57:45;;;;;;;3.70;3.40;;;;;;;-144.99;100.00;67352.69;5025708;28;20191;-87
2023/11/17 08:00:18;;;;;;;2.23;2.10;;;;;;;-144.99;100.00;67352.69;5031596;28;20549;-86
2023/11/17 08:02:47;;;;;;;4.23;3.93;;;;;;;-144.99;100.00;67352.69;5027410;28;20294;-85
2023/11/17 08:05:15;;;;;;;3.53;3.33;;;;;;;-144.99;100.00;67352.69;5032033;28;20576;-86
2023/11/17 08:07:40;;;;;;;3.77;3.47;;;;;;;-144.99;100.00;67352.69;4970071;28;1319756;-88
2023/11/17 08:10:07;;;;;;;6.73;3.73;;;;;;;-144.99;100.00;67352.69;5035968;28;20183;-87
2023/11/17 08:12:33;;;;;;;2.20;2.03;;;;;;;-144.99;100.00;67352.69;5027042;28;20599;-87
2023/11/17 08:14:59;;;;;;;3.37;3.17;;;;;;;-144.99;100.00;67352.69;5013243;28;20211;-87
2023/11/17 08:17:24;;;;;;;3.50;3.20;;;;;;;-144.99;100.00;67352.69;5015463;28;20264;-87
2023/11/17 08:19:50;;;;;;;3.03;2.70;;;;;;;-144.99;100.00;67352.69;5012329;28;20184;-87
2023/11/17 08:22:16;;;;;;;7.47;3.50;;;;;;;-144.99;100.00;67352.69;5029666;28;20211;-87
2023/11/17 08:24:46;;;;;;;6.97;3.93;;;;;;;-144.99;100.00;67352.69;5034106;28;20176;-87
2023/11/17 08:27:14;;;;;;;3.67;3.37;;;;;;;-144.99;100.00;67352.69;5031043;28;20204;-87
2023/11/17 08:29:39;;;;;;;8.57;4.63;;;;;;;-144.99;100.00;67352.69;5024462;28;20180;-88
2023/11/17 08:32:04;;;;;;;3.70;3.40;;;;;;;-144.99;100.00;67352.69;5025991;28;20184;-87
2023/11/17 08:34:31;;;;;;;3.60;2.43;;;;;;;-144.99;100.00;67352.69;5028789;28;20180;-87
2023/11/17 08:36:58;;;;;;;3.70;3.40;;;;;;;-144.99;100.00;67352.69;5018078;28;20214;-88
2023/11/17 08:39:26;;;;;;;1.77;1.67;;;;;;;-144.99;100.00;67352.69;5016993;28;20230;-86
2023/11/17 08:41:56;;;;;;;3.23;2.83;;;;;;;-144.99;100.00;67352.69;5013325;28;20192;-87
2023/11/17 08:44:22;;;;;;;3.40;3.10;;;;;;;-144.99;100.00;67352.69;5030916;28;20279;-87
2023/11/17 08:46:49;;;;;;;4.73;2.77;;;;;;;-144.99;100.00;67352.69;5033543;28;20241;-87
2023/11/17 08:49:16;;;;;;;3.57;3.27;;;;;;;-144.99;100.00;67352.69;5031173;28;20176;-87
2023/11/17 08:51:42;;;;;;;2.47;2.27;;;;;;;-144.99;100.00;67352.69;5032996;28;20475;-87
2023/11/17 08:54:07;;;;;;;2.23;2.13;;;;;;;-144.99;100.00;67352.69;5014968;28;20290;-88
2023/11/17 08:56:34;;;;;;;4.13;3.80;;;;;;;-144.99;100.00;67352.69;5031031;28;20683;-87
2023/11/17 08:59:01;;;;;;;3.00;2.40;;;;;;;-144.99;100.00;67352.69;5012219;28;20196;-87
2023/11/17 09:01:27;;;;;;;2.67;2.47;;;;;;;-144.99;100.00;67352.69;5032440;28;20199;-87
2023/11/17 09:03:52;;;;;;;3.13;2.93;;;;;;;-144.99;100.00;67352.69;5034848;28;20183;-88
2023/11/17 09:06:18;;;;;;;3.20;2.97;;;;;;;-144.99;100.00;67352.69;5014492;28;20576;-88
2023/11/17 09:08:43;;;;;;;4.87;3.40;;;;;;;-144.99;100.00;67352.69;5014517;28;20647;-88
2023/11/17 09:11:08;;;;;;;3.00;2.70;;;;;;;-144.99;100.00;67352.69;5014600;28;20284;-88
2023/11/17 09:13:34;;;;;;;3.67;3.37;;;;;;;-144.99;100.00;67352.69;5032257;28;20191;-87
2023/11/17 09:15:59;;;;;;;2.43;2.20;;;;;;;-144.99;100.00;67352.69;5032073;28;20234;-87
2023/11/17 09:18:24;;;;;;;3.90;3.60;;;;;;;-144.99;100.00;67352.69;5014627;28;20290;-88
2023/11/17 09:20:50;;;;;;;2.97;2.77;;;;;;;-144.99;100.00;67352.69;5030923;28;20187;-87
2023/11/17 09:23:15;;;;;;;3.03;2.60;;;;;;;-144.99;100.00;67352.69;5031053;28;20233;-87
2023/11/17 09:25:41;;;;;;;2.40;2.20;;;;;;;-144.99;100.00;67352.69;5012273;28;20192;-87
2023/11/17 09:28:07;;;;;;;1.40;1.40;;;;;;;-144.99;100.00;67352.69;5014422;28;20215;-87
2023/11/17 09:30:32;;;;;;;2.47;2.27;;;;;;;-144.99;100.00;67352.69;5032462;28;20179;-88
2023/11/17 09:32:59;;;;;;;3.60;3.30;;;;;;;-144.99;100.00;67352.69;5031826;28;20226;-87
2023/11/17 09:35:26;;;;;;;4.60;2.67;;;;;;;-144.99;100.00;67352.69;5030932;28;20233;-86
2023/11/17 09:38:00;;;;;;;4.27;2.30;;;;;;;-144.99;100.00;67352.69;5031391;28;20242;-87
2023/11/17 09:40:28;;;;;;;3.20;2.67;;;;;;;-144.99;100.00;67352.69;5035400;28;20194;-87
2023/11/17 09:42:57;;;;;;;4.33;2.77;;;;;;;-144.99;100.00;67352.69;5014043;28;20241;-87
2023/11/17 09:45:24;;;;;;;7.00;2.43;;;;;;;-144.99;100.00;67352.69;5033239;28;20180;-87
2023/11/17 09:47:55;;;;;;;1.70;1.60;;;;;;;-144.99;100.00;67352.69;5031733;28;20222;-87
2023/11/17 09:50:22;;;;;;;1.93;1.83;;;;;;;-144.99;100.00;67352.69;5012604;28;20180;-87
2023/11/17 09:52:49;;;;;;;1.70;1.60;;;;;;;-144.99;100.00;67352.69;5018646;28;20188;-85
2023/11/17 09:55:16;;;;;;;1.80;1.70;;;;;;;-144.99;100.00;67352.69;5018478;28;20215;-86
2023/11/17 09:57:42;;;;;;;2.10;1.90;;;;;;;-144.99;100.00;67352.69;5036088;28;20623;-85
2023/11/17 10:00:20;;;;;;;1.53;1.43;;;;;;;-144.99;100.00;67352.69;5033660;28;20180;-85
2023/11/17 10:02:57;;;;;;;1.30;1.20;;;;;;;-144.99;100.00;67352.69;5018404;28;20241;-85
2023/11/17 10:05:24;;;;;;;1.77;1.07;;;;;;;-144.99;100.00;67352.69;5017789;28;20261;-85
2023/11/17 10:07:54;;;;;;;1.63;1.53;;;;;;;-144.99;100.00;67352.69;5018192;28;20294;-85
2023/11/17 10:10:20;;;;;;;1.53;1.33;;;;;;;-144.99;100.00;67352.69;5018387;28;20183;-85
2023/11/17 10:12:48;;;;;;;1.43;1.23;;;;;;;-144.99;100.00;67352.69;5018076;28;20234;-85
2023/11/17 10:15:16;;;;;;;2.83;1.90;;;;;;;-144.99;100.00;67352.69;5036177;28;20274;-85
2023/11/17 10:17:45;;;;;;;1.30;1.17;;;;;;;-144.99;100.00;67352.69;5021013;28;20274;-85
2023/11/17 10:20:17;;;;;;;1.63;1.53;;;;;;;-144.99;100.00;67352.69;5035181;28;20609;-87
2023/11/17 10:22:47;;;;;;;1.57;1.43;;;;;;;-144.99;100.00;67352.69;5035934;28;20204;-87
2023/11/17 10:25:16;;;;;;;2.27;2.03;;;;;;;-144.99;100.00;67352.69;5035694;28;20318;-87
2023/11/17 10:27:44;;;;;;;1.13;1.07;;;;;;;-144.99;100.00;67352.69;5035701;28;20348;-86
2023/11/17 10:30:11;;;;;;;2.27;1.97;;;;;;;-144.99;100.00;67352.69;5035610;28;20271;-87
2023/11/17 10:32:39;;;;;;;9.97;1.87;;;;;;;-144.99;100.00;67352.69;5034744;28;20179;-87
2023/11/17 10:35:16;;;;;;;1.50;1.40;;;;;;;-144.99;100.00;67352.69;5036185;28;20263;-87
2023/11/17 10:37:44;;;;;;;2.73;1.67;;;;;;;-144.99;100.00;67352.69;5035870;28;20206;-87
2023/11/17 10:40:10;;;;;;;6.83;1.90;;;;;;;-144.99;100.00;67352.69;5017389;28;20666;-88
2023/11/17 10:42:35;;;;;;;0.43;0.43;;;;;;;-144.99;100.00;67352.69;5017111;28;20298;-87
2023/11/17 10:45:16;;;;;;;1.07;1.00;;;;;;;-144.99;100.00;67352.69;5035312;28;20681;-88
2023/11/17 10:47:42;;;;;;;1.63;1.53;;;;;;;-144.99;100.00;67352.69;5033757;28;20214;-87
2023/11/17 10:50:08;;;;;;;1.23;1.13;;;;;;;-144.99;100.00;67352.69;5034056;28;20187;-86
2023/11/17 10:52:33;;;;;;;1.47;1.37;;;;;;;-144.99;100.00;67352.69;5034041;28;20368;-87
2023/11/17 10:54:59;;;;;;;1.27;1.03;;;;;;;-144.99;100.00;67352.69;5035239;28;20179;-87
2023/11/17 10:57:26;;;;;;;1.67;1.43;;;;;;;-144.99;100.00;67352.69;5017431;28;20238;-87
2023/11/17 10:59:52;;;;;;;1.73;1.50;;;;;;;-144.99;100.00;67352.69;5017089;28;20188;-87
2023/11/17 11:02:19;;;;;;;1.83;1.73;;;;;;;-144.99;100.00;67352.69;5017312;28;20207;-87
2023/11/17 11:04:46;;;;;;;1.47;1.33;;;;;;;-144.99;100.00;67352.69;5016854;28;20275;-87
2023/11/17 11:07:14;;;;;;;0.80;0.80;;;;;;;-144.99;100.00;67352.69;5039083;28;20211;-85
2023/11/17 11:09:40;;;;;;;0.97;0.97;;;;;;;-144.99;100.00;67352.69;5017146;28;20175;-86
2023/11/17 11:12:08;;;;;;;0.73;0.73;;;;;;;-144.99;100.00;67352.69;5034568;28;20191;-85
2023/11/17 11:14:33;;;;;;;3.47;0.67;;;;;;;-144.99;100.00;67352.69;5020733;28;20272;-85
2023/11/17 11:17:00;;;;;;;0.30;0.30;;;;;;;-144.99;100.00;67352.69;5032842;28;20751;-85
2023/11/17 11:19:31;;;;;;;0.20;0.20;;;;;;;-144.99;100.00;67352.69;5037168;28;20183;-86
2023/11/17 11:22:00;;;;;;;0.97;0.40;;;;;;;-144.99;100.00;67352.69;5034986;28;20705;-85
2023/11/17 11:24:34;;;;;;;0.40;0.40;;;;;;;-144.99;100.00;67352.69;5034246;28;20543;-86
2023/11/17 11:27:01;;;;;;;8.27;0.40;;;;;;;-144.99;100.00;67352.69;5015620;28;20690;-85
2023/11/17 11:29:29;;;;;;;0.63;0.37;;;;;;;-144.99;100.00;67352.69;5016270;28;20176;-85
2023/11/17 11:31:55;;;;;;;0.40;0.40;;;;;;;-144.99;100.00;67352.69;5016686;28;20211;-85
2023/11/17 11:34:21;;;;;;;0.10;0.10;;;;;;;-144.99;100.00;67352.69;5016295;28;20267;-85
2023/11/17 11:36:48;;;;;;;0.37;0.37;;;;;;;-144.99;100.00;67352.69;5018613;28;20196;-85
2023/11/17 11:39:14;;;;;;;0.57;0.57;;;;;;;-144.99;100.00;67352.69;5032476;28;20180;-85
2023/11/17 11:41:41;;;;;;;5.43;1.37;;;;;;;-144.99;100.00;67352.69;5032865;28;20290;-85
2023/11/17 11:44:09;;;;;;;0.30;0.30;;;;;;;-144.99;100.00;67352.69;5016114;28;20183;-85
2023/11/17 11:46:35;;;;;;;1.13;0.47;;;;;;;-144.99;100.00;67352.69;5035497;28;20680;-86
2023/11/17 11:49:05;;;;;;;0.57;0.27;;;;;;;-144.99;100.00;67352.69;5032212;28;20654;-86
2023/11/17 11:51:34;;;;;;;0.90;0.70;;;;;;;-144.99;100.00;67352.69;5032584;28;20180;-86
2023/11/17 11:54:08;;;;;;;0.40;0.40;;;;;;;-144.99;100.00;67352.69;5014231;28;20238;-87
2023/11/17 11:56:35;;;;;;;0.60;0.40;;;;;;;-144.99;100.00;67352.69;5015972;28;20211;-88
2023/11/17 11:59:05;;;;;;;0.30;0.17;;;;;;;-144.99;100.00;67352.69;5032497;28;20187;-88
2023/11/17 12:01:32;;;;;;;0.93;0.67;;;;;;;-144.99;100.00;67352.69;5016468;28;20257;-88
2023/11/17 12:04:05;;;;;;;0.83;0.70;;;;;;;-144.99;100.00;67352.69;5032655;28;20187;-88
2023/11/17 12:06:33;;;;;;;1.73;1.23;;;;;;;-144.99;100.00;67352.69;5031906;28;20207;-88
2023/11/17 12:09:16;;;;;;;0.40;0.40;;;;;;;-144.99;100.00;67352.69;5032331;28;20183;-88
2023/11/17 12:11:53;;;;;;;0.27;0.27;;;;;;;-144.99;100.00;67352.69;5015066;28;20663;-88
2023/11/17 12:14:26;;;;;;;0.20;0.20;;;;;;;-144.99;100.00;67352.69;5033813;28;20179;-88
2023/11/17 12:16:54;;;;;;;13.03;0.40;;;;;;;-144.99;100.00;67352.69;5015393;28;20219;-88
2023/11/17 12:19:24;;;;;;;0.43;0.40;;;;;;;-144.99;100.00;67352.69;5007573;28;20657;-87
2023/11/17 12:21:50;;;;;;;1.13;0.40;;;;;;;-144.99;100.00;67352.69;5033071;28;20338;-88
2023/11/17 12:24:23;;;;;;;0.10;0.10;;;;;;;-144.99;100.00;67352.69;5015840;28;20211;-87
2023/11/17 12:26:57;;;;;;;0.00;0.00;;;;;;;-144.99;100.00;67352.69;5034557;28;20269;-88
2023/11/17 12:29:31;;;;;;;1.23;0.37;;;;;;;-144.99;100.00;67352.69;5017039;28;20176;-86
2023/11/17 12:31:59;;;;;;;0.57;0.53;;;;;;;-144.99;100.00;67352.69;5016047;28;20218;-87
2023/11/17 12:34:25;;;;;;;2.87;2.03;;;;;;;-144.99;100.00;67352.69;5036393;28;20195;-87
2023/11/17 12:37:00;;;;;;;0.90;0.70;;;;;;;-144.99;100.00;67352.69;5031829;28;20196;-87
2023/11/17 12:39:40;;;;;;;0.50;0.50;;;;;;;-144.99;100.00;67352.69;5009227;28;20186;-87
2023/11/17 12:42:14;;;;;;;1.57;1.10;;;;;;;-144.99;100.00;67352.69;5033982;28;20199;-87
2023/11/17 12:44:40;;;;;;;0.80;0.80;;;;;;;-144.99;100.00;67352.69;5033119;28;20259;-88